KAVP/AVP METAR and TAF weather

Enter ICAO airport designator
Station Type Date Time Source
KAVP METAR 2021/05/13 00:54 UTC NOAA

KAVP 130054Z 01006KT 10SM CLR 13/M02 A3021 RMK AO2 SLP230 T01331022


Station Type Date Time Source
KAVP Decoded METAR 2021/05/13 00:54 UTC NOAA

WILKES-BARRE/SCRANTON INTERNATIONAL , PA, United States (KAVP) 41-20N 75-44W 291M
May 12, 2021 - 08:54 PM EDT / 2021.05.13 0054 UTC
Wind: from the N (010 degrees) at 7 MPH (6 KT):0
Visibility: 10 mile(s):0
Sky conditions: clear
Temperature: 55.9 F (13.3 C)
Dew Point: 28.0 F (-2.2 C)
Relative Humidity: 34%
Pressure (altimeter): 30.21 in. Hg (1023 hPa)
ob: KAVP 130054Z 01006KT 10SM CLR 13/M02 A3021 RMK AO2 SLP230 T01331022
cycle: 1

Station Type Date Time Source
KAVP TAF 2021/05/12 18:22 UTC NOAA

TAF KAVP 121720Z 1218/1318 33011KT P6SM SCT060
FM130000 VRB04KT P6SM SKC
FM131500 34008KT P6SM FEW060

Example: see airport list